Terminal Aerodrome Forecast
Issued by NWS

Home | Current Version | Previous Version | Text Only | Print | Product List | Glossary On
Versions: 1 2 3 4 5 6 7 8 9 10 11 12 13 14 15 16 17 18 19
000
FTUS46 KMFR 280521
TAFOTH
TAF
KOTH 280521Z 2806/0106 27008KT P6SM -SHRA FEW020 BKN030 OVC060
     FM280700 22010KT P6SM -SHRA BKN020 OVC035
     FM282000 27009KT P6SM -SHRA SCT025 BKN035 BKN060=

USA.gov is the U.S. government's official web portal to all federal, state and local government web resources and services.